Time;durP1;ratioP1;P1;durP2;ratioP2;P2;SDS_P1;SDS_P2;PMS_P1;PMS_P2;Temp;Humidity;BMP_temperature;BMP_pressure;BME280_temperature;BME280_humidity;BME280_pressure;Samples;Min_cycle;Max_cycle;Signal;HPM_P1;HPM_P2
2023/06/02 00:03:30;;;;;;;4.87;4.13;;;19.40;69.70;;;;;;10381386;28;20198;-80
2023/06/02 00:08:33;;;;;;;5.37;4.60;;;19.40;69.90;;;;;;10362452;28;20242;-81
2023/06/02 00:13:38;;;;;;;4.80;4.40;;;19.30;69.60;;;;;;10323805;28;20609;-81
2023/06/02 00:18:40;;;;;;;5.17;4.77;;;19.20;69.10;;;;;;10353393;28;20653;-81
2023/06/02 00:23:43;;;;;;;5.17;4.67;;;19.10;68.70;;;;;;10384706;28;20192;-81
2023/06/02 00:28:46;;;;;;;6.20;4.90;;;19.10;70.40;;;;;;10367343;28;20719;-81
2023/06/02 00:33:49;;;;;;;5.13;4.73;;;19.00;68.70;;;;;;10386305;28;20286;-81
2023/06/02 00:38:51;;;;;;;5.07;4.67;;;19.00;68.40;;;;;;10367424;28;20219;-81
2023/06/02 00:43:55;;;;;;;5.83;5.33;;;19.00;68.30;;;;;;10332104;28;20199;-81
2023/06/02 00:48:57;;;;;;;5.07;4.60;;;18.90;68.00;;;;;;10329270;28;20754;-84
2023/06/02 00:53:59;;;;;;;5.10;4.70;;;18.80;68.50;;;;;;10344054;28;20263;-84
2023/06/02 00:59:03;;;;;;;5.90;5.30;;;18.70;69.00;;;;;;10365698;28;20238;-84
2023/06/02 01:04:07;;;;;;;6.13;5.53;;;18.70;67.80;;;;;;10370188;28;20253;-80
2023/06/02 01:09:12;;;;;;;5.33;4.93;;;18.70;67.80;;;;;;10398083;28;20290;-79
2023/06/02 01:14:15;;;;;;;5.23;4.60;;;18.60;68.30;;;;;;10403433;28;20191;-78
2023/06/02 01:19:20;;;;;;;5.77;5.27;;;18.60;67.70;;;;;;10384667;28;20223;-81
2023/06/02 01:24:25;;;;;;;5.43;5.03;;;18.50;68.50;;;;;;10344373;28;20204;-81
2023/06/02 01:29:32;;;;;;;4.90;4.50;;;18.50;69.10;;;;;;10343215;28;20281;-80
2023/06/02 01:34:42;;;;;;;5.47;4.90;;;18.50;68.70;;;;;;10375159;28;20265;-79
2023/06/02 01:39:47;;;;;;;5.40;5.00;;;18.40;68.60;;;;;;10360886;28;20310;-80
2023/06/02 01:44:50;;;;;;;5.87;5.47;;;18.40;69.60;;;;;;10368410;28;20234;-80
2023/06/02 01:49:52;;;;;;;6.20;5.23;;;18.40;68.60;;;;;;10369681;28;20230;-80
2023/06/02 01:54:56;;;;;;;6.10;5.50;;;18.40;68.70;;;;;;10371602;28;20199;-81
2023/06/02 01:59:58;;;;;;;5.90;5.40;;;18.40;68.40;;;;;;10371074;28;20298;-84
2023/06/02 02:05:00;;;;;;;6.50;6.00;;;18.40;67.40;;;;;;10371037;28;20562;-84
2023/06/02 02:10:04;;;;;;;6.27;5.67;;;18.40;67.60;;;;;;10371663;28;20254;-84
2023/06/02 02:15:09;;;;;;;5.50;5.10;;;18.30;66.90;;;;;;10373336;28;20195;-84
2023/06/02 02:20:12;;;;;;;5.20;4.80;;;18.30;68.20;;;;;;10375157;28;20222;-81
2023/06/02 02:25:16;;;;;;;6.27;5.67;;;18.20;69.00;;;;;;10385572;28;20199;-80
2023/06/02 02:30:18;;;;;;;6.90;6.20;;;18.20;69.70;;;;;;10365696;28;20223;-80
2023/06/02 02:35:20;;;;;;;6.33;5.83;;;18.20;69.40;;;;;;10380892;28;20290;-80
2023/06/02 02:40:24;;;;;;;6.63;6.00;;;18.20;68.10;;;;;;10363367;28;20793;-81
2023/06/02 02:45:26;;;;;;;6.60;6.00;;;18.20;69.90;;;;;;10365979;28;20208;-80
2023/06/02 02:50:29;;;;;;;7.10;6.40;;;18.20;68.60;;;;;;10367086;28;20231;-80
2023/06/02 02:55:33;;;;;;;8.80;6.20;;;18.20;69.40;;;;;;10348317;28;20627;-81
2023/06/02 03:00:36;;;;;;;8.33;6.57;;;18.30;68.60;;;;;;10348107;28;20220;-81
2023/06/02 03:05:41;;;;;;;7.13;6.53;;;18.30;69.60;;;;;;10365573;28;20541;-81
2023/06/02 03:10:45;;;;;;;7.17;6.47;;;18.30;69.90;;;;;;10365020;28;20231;-79
2023/06/02 03:15:50;;;;;;;7.40;6.67;;;18.30;69.10;;;;;;10361999;28;20231;-80
2023/06/02 03:20:54;;;;;;;6.77;6.00;;;18.30;70.20;;;;;;10352311;28;20292;-79
2023/06/02 03:26:00;;;;;;;6.20;5.70;;;18.30;70.00;;;;;;10354254;28;20270;-80
2023/06/02 03:31:03;;;;;;;7.90;7.00;;;18.20;70.20;;;;;;10414310;23;20241;-87
2023/06/02 03:36:05;;;;;;;8.03;5.93;;;18.20;70.80;;;;;;10377068;28;20202;-87
2023/06/02 03:41:09;;;;;;;7.37;6.87;;;18.20;71.20;;;;;;10376189;28;20249;-87
2023/06/02 03:46:11;;;;;;;8.10;6.90;;;18.10;70.70;;;;;;10377079;28;20289;-86
2023/06/02 03:51:14;;;;;;;8.87;7.23;;;18.10;71.10;;;;;;10376577;28;20225;-87
2023/06/02 03:56:19;;;;;;;8.10;7.33;;;18.00;71.70;;;;;;10393123;28;20203;-87
2023/06/02 04:01:23;;;;;;;9.50;6.70;;;18.00;72.00;;;;;;10392559;28;20225;-87
2023/06/02 04:06:28;;;;;;;7.43;6.80;;;18.00;72.10;;;;;;10374602;28;20210;-87
2023/06/02 04:11:32;;;;;;;8.97;8.00;;;17.90;72.50;;;;;;10375487;28;20245;-86
2023/06/02 04:16:35;;;;;;;8.40;7.70;;;17.80;74.20;;;;;;10375510;28;20260;-86
2023/06/02 04:21:37;;;;;;;10.50;7.63;;;17.80;72.80;;;;;;10375342;28;20269;-86
2023/06/02 04:26:42;;;;;;;8.20;7.50;;;17.70;74.40;;;;;;10391029;28;20218;-86
2023/06/02 04:31:47;;;;;;;8.00;7.20;;;17.80;74.30;;;;;;10358400;28;20222;-86
2023/06/02 04:36:58;;;;;;;8.23;7.53;;;17.70;74.30;;;;;;10333762;28;20287;-86
2023/06/02 04:42:03;;;;;;;8.60;7.70;;;17.70;74.50;;;;;;10351186;28;20222;-85
2023/06/02 04:47:06;;;;;;;8.00;7.20;;;17.70;74.40;;;;;;10351229;28;20235;-86
2023/06/02 04:52:09;;;;;;;9.80;8.47;;;17.70;75.40;;;;;;10337191;28;20203;-87
2023/06/02 04:57:15;;;;;;;9.37;8.47;;;17.70;74.90;;;;;;10335464;28;20216;-85
2023/06/02 05:02:18;;;;;;;9.17;8.20;;;17.70;75.00;;;;;;10348186;28;20238;-86
2023/06/02 05:07:20;;;;;;;8.87;7.70;;;17.60;75.20;;;;;;10353046;28;20265;-86
2023/06/02 05:12:25;;;;;;;11.40;7.70;;;17.60;75.20;;;;;;10343934;28;20257;-86
2023/06/02 05:17:28;;;;;;;9.03;8.20;;;17.60;75.90;;;;;;10334523;28;20227;-86
2023/06/02 05:22:32;;;;;;;8.70;7.90;;;17.60;76.30;;;;;;10364753;28;20203;-86
2023/06/02 05:27:37;;;;;;;10.03;8.93;;;17.50;77.00;;;;;;10391508;28;20276;-86
2023/06/02 05:32:39;;;;;;;10.23;9.10;;;17.50;76.10;;;;;;10402025;28;20289;-86
2023/06/02 05:37:43;;;;;;;10.47;9.47;;;17.50;77.40;;;;;;10397233;28;20210;-86
2023/06/02 05:42:47;;;;;;;8.00;7.20;;;17.50;76.80;;;;;;10394155;28;20215;-86
2023/06/02 05:47:51;;;;;;;11.83;8.50;;;17.50;78.40;;;;;;10394774;28;20423;-85
2023/06/02 05:52:54;;;;;;;9.13;8.20;;;17.50;77.60;;;;;;10377424;28;20633;-86
2023/06/02 05:57:58;;;;;;;9.50;8.53;;;17.60;77.80;;;;;;10394781;28;20222;-86
2023/06/02 06:03:01;;;;;;;8.37;7.60;;;17.60;77.60;;;;;;10388373;28;20559;-85
2023/06/02 06:08:08;;;;;;;10.30;8.60;;;17.60;78.90;;;;;;10393570;28;20313;-85
2023/06/02 06:13:12;;;;;;;8.90;8.00;;;17.60;78.80;;;;;;10378703;28;20210;-85
2023/06/02 06:18:15;;;;;;;8.17;7.37;;;17.70;78.70;;;;;;10396184;28;20685;-85
2023/06/02 06:23:18;;;;;;;8.67;7.90;;;17.80;79.00;;;;;;10379484;28;20206;-85
2023/06/02 06:28:22;;;;;;;8.50;7.70;;;17.90;78.50;;;;;;10395665;28;20435;-85
2023/06/02 06:33:25;;;;;;;12.40;8.10;;;18.00;78.70;;;;;;10395329;28;20336;-85
2023/06/02 06:38:28;;;;;;;10.37;8.30;;;18.20;78.50;;;;;;10380195;28;20226;-85
2023/06/02 06:43:32;;;;;;;8.97;8.17;;;18.50;78.30;;;;;;10397088;28;20210;-85
2023/06/02 06:48:39;;;;;;;9.23;7.63;;;18.80;76.30;;;;;;10383402;28;20261;-86
2023/06/02 06:53:41;;;;;;;9.10;8.20;;;19.10;77.00;;;;;;10409343;28;20199;-86
2023/06/02 06:58:45;;;;;;;9.30;8.40;;;19.40;76.40;;;;;;10385065;28;20254;-86
2023/06/02 07:03:51;;;;;;;10.20;7.07;;;19.70;75.60;;;;;;10394989;28;20195;-86
2023/06/02 07:08:53;;;;;;;9.23;8.43;;;20.00;75.20;;;;;;10378295;28;20234;-86
2023/06/02 07:13:57;;;;;;;7.80;7.20;;;20.20;74.00;;;;;;10377661;28;20525;-86
2023/06/02 07:18:59;;;;;;;7.33;6.63;;;20.50;73.20;;;;;;10393573;28;20250;-86
2023/06/02 07:24:01;;;;;;;7.40;6.70;;;20.80;73.00;;;;;;10411876;28;20217;-86
2023/06/02 07:29:05;;;;;;;11.73;6.97;;;21.20;71.10;;;;;;10393358;28;20682;-86
2023/06/02 07:34:07;;;;;;;8.20;7.40;;;21.50;71.60;;;;;;10393594;28;20206;-86
2023/06/02 07:39:09;;;;;;;9.87;6.60;;;21.90;70.10;;;;;;10377385;28;20313;-86
2023/06/02 07:44:14;;;;;;;7.73;6.93;;;22.30;69.50;;;;;;10385284;28;20206;-86
2023/06/02 07:49:16;;;;;;;7.50;6.90;;;22.80;68.00;;;;;;10376786;28;20260;-86
2023/06/02 07:54:19;;;;;;;8.10;7.30;;;23.20;66.90;;;;;;10392500;28;20639;-86
2023/06/02 07:59:23;;;;;;;7.60;6.90;;;23.60;66.10;;;;;;10375665;28;20214;-86
2023/06/02 08:04:27;;;;;;;13.20;11.90;;;24.00;65.80;;;;;;10391956;28;20207;-86
2023/06/02 08:09:29;;;;;;;8.80;7.87;;;24.40;65.00;;;;;;10375475;28;20223;-86
2023/06/02 08:14:33;;;;;;;6.63;5.97;;;24.90;63.50;;;;;;10377384;28;20202;-86
2023/06/02 08:19:35;;;;;;;6.73;6.23;;;25.30;62.40;;;;;;10391882;28;20338;-86
2023/06/02 08:24:40;;;;;;;10.50;7.37;;;25.60;62.00;;;;;;10391330;28;20745;-86
2023/06/02 08:29:46;;;;;;;9.13;6.33;;;25.90;60.50;;;;;;10396922;28;20227;-86
2023/06/02 08:34:50;;;;;;;10.80;6.20;;;26.00;60.60;;;;;;10362592;28;20277;-86
2023/06/02 08:39:52;;;;;;;6.97;6.37;;;26.20;58.90;;;;;;10356708;28;20226;-86
2023/06/02 08:44:57;;;;;;;8.20;7.53;;;26.30;59.50;;;;;;10409057;28;20267;-86
2023/06/02 08:50:05;;;;;;;6.77;6.07;;;26.50;59.00;;;;;;10377082;28;20235;-86
2023/06/02 08:55:08;;;;;;;7.87;6.73;;;26.50;59.30;;;;;;10388100;28;20234;-86
2023/06/02 09:00:13;;;;;;;6.80;6.20;;;26.60;59.00;;;;;;10365907;28;20590;-86
2023/06/02 09:05:16;;;;;;;6.87;6.37;;;26.70;59.30;;;;;;10362241;28;20285;-86
2023/06/02 09:10:36;;;;;;;7.73;6.93;;;27.00;59.40;;;;;;10350061;28;20222;-86
2023/06/02 09:15:58;;;;;;;6.63;5.93;;;27.30;58.30;;;;;;10385963;28;20202;-86
2023/06/02 09:21:00;;;;;;;6.13;5.60;;;27.50;57.90;;;;;;10367512;28;20214;-86
2023/06/02 09:26:03;;;;;;;7.27;6.57;;;27.70;57.60;;;;;;10375515;28;20214;-87
2023/06/02 09:31:06;;;;;;;6.67;6.07;;;28.00;56.50;;;;;;10421956;23;20722;-79
2023/06/02 09:36:23;;;;;;;6.73;6.10;;;28.30;56.60;;;;;;10398608;28;20605;-79
2023/06/02 09:41:28;;;;;;;6.30;5.80;;;28.90;56.00;;;;;;10394156;28;20222;-79
2023/06/02 09:46:40;;;;;;;5.93;5.30;;;29.70;55.30;;;;;;10406778;28;20625;-79
2023/06/02 09:51:42;;;;;;;6.53;5.93;;;30.40;54.40;;;;;;10399803;28;20223;-80
2023/06/02 09:56:44;;;;;;;11.20;6.80;;;31.40;52.60;;;;;;10364253;28;20206;-80
2023/06/02 10:01:49;;;;;;;8.33;5.60;;;32.40;51.20;;;;;;10394638;28;20210;-80
2023/06/02 10:07:06;;;;;;;6.40;5.80;;;33.50;51.50;;;;;;10423738;28;20212;-79
2023/06/02 10:12:20;;;;;;;6.55;5.43;;;34.40;50.00;;;;;;10402856;28;20221;-80
2023/06/02 10:17:35;;;;;;;9.07;5.03;;;35.30;49.20;;;;;;10391641;28;20222;-79
2023/06/02 10:22:57;;;;;;;6.30;5.70;;;35.60;47.40;;;;;;10385187;28;20261;-79
2023/06/02 10:28:03;;;;;;;6.07;5.67;;;33.60;47.90;;;;;;10389091;28;20219;-79
2023/06/02 10:33:07;;;;;;;6.30;5.80;;;31.50;50.00;;;;;;10401108;28;20207;-79
2023/06/02 10:38:28;;;;;;;6.60;6.10;;;29.70;52.30;;;;;;10389093;28;20230;-79
2023/06/02 10:43:32;;;;;;;7.60;6.77;;;28.30;53.80;;;;;;10413730;28;20317;-79
2023/06/02 10:48:37;;;;;;;5.70;5.30;;;27.30;55.20;;;;;;10371492;28;20630;-79
2023/06/02 10:54:14;;;;;;;8.57;4.93;;;26.40;57.10;;;;;;10396129;28;20230;-79
2023/06/02 10:59:34;;;;;;;6.33;5.80;;;25.90;57.70;;;;;;10361866;28;20592;-79
2023/06/02 11:04:42;;;;;;;6.73;6.20;;;25.40;59.00;;;;;;10390284;28;20201;-79
2023/06/02 11:09:46;;;;;;;8.13;6.47;;;25.00;57.60;;;;;;10375997;28;20303;-79
2023/06/02 11:15:16;;;;;;;7.07;6.53;;;24.70;58.30;;;;;;10418767;28;20233;-79
2023/06/02 11:20:21;;;;;;;7.10;5.90;;;24.40;59.70;;;;;;10401836;28;20648;-79
2023/06/02 11:25:23;;;;;;;7.10;6.37;;;24.20;61.30;;;;;;10367337;28;20203;-79
2023/06/02 11:30:26;;;;;;;6.23;5.73;;;24.20;60.90;;;;;;10395484;28;20233;-80
2023/06/02 11:35:30;;;;;;;6.20;5.73;;;24.00;60.10;;;;;;10401251;28;20260;-80
2023/06/02 11:40:32;;;;;;;9.00;6.00;;;23.90;60.30;;;;;;10400055;28;20218;-80
2023/06/02 11:45:36;;;;;;;6.20;5.60;;;23.90;60.10;;;;;;10401377;28;20209;-80
2023/06/02 11:50:39;;;;;;;6.73;5.83;;;23.80;61.10;;;;;;10419856;28;20718;-80
2023/06/02 11:55:42;;;;;;;5.43;5.03;;;23.80;61.50;;;;;;10364626;28;20196;-80
2023/06/02 12:00:44;;;;;;;5.50;5.00;;;23.80;59.70;;;;;;10358551;28;20729;-80
2023/06/02 12:05:49;;;;;;;6.33;5.63;;;23.70;59.80;;;;;;10390780;28;20273;-80
2023/06/02 12:10:53;;;;;;;6.07;5.57;;;23.70;59.60;;;;;;10382737;28;20661;-80
2023/06/02 12:16:16;;;;;;;6.67;6.03;;;23.70;59.50;;;;;;10416779;28;20213;-80
2023/06/02 12:21:23;;;;;;;8.13;5.73;;;23.60;60.30;;;;;;10364325;28;20220;-80
2023/06/02 12:26:25;;;;;;;7.30;5.80;;;23.70;60.20;;;;;;10360752;28;20234;-80
2023/06/02 12:31:27;;;;;;;5.87;5.37;;;23.70;60.40;;;;;;10341839;28;20770;-81
2023/06/02 12:36:31;;;;;;;5.67;5.20;;;23.70;60.90;;;;;;10409882;28;20199;-81
2023/06/02 12:41:33;;;;;;;5.30;4.80;;;23.70;59.60;;;;;;10400348;28;20214;-81
2023/06/02 12:46:35;;;;;;;7.10;6.40;;;23.70;58.70;;;;;;10371302;28;20307;-81
2023/06/02 12:51:39;;;;;;;6.10;5.30;;;23.70;59.00;;;;;;10377770;28;20333;-80
2023/06/02 12:56:42;;;;;;;5.80;5.30;;;23.70;60.00;;;;;;10384900;28;20223;-80
2023/06/02 13:01:44;;;;;;;5.87;5.30;;;23.70;59.60;;;;;;10382499;28;20758;-80
2023/06/02 13:06:48;;;;;;;5.50;5.10;;;23.70;59.20;;;;;;10395011;28;20234;-80
2023/06/02 13:11:50;;;;;;;5.97;5.20;;;23.70;58.80;;;;;;10390355;28;20780;-80
2023/06/02 13:16:52;;;;;;;5.60;5.20;;;23.70;58.00;;;;;;10421880;28;20199;-80
2023/06/02 13:21:55;;;;;;;6.03;5.57;;;23.70;59.10;;;;;;10396972;28;20221;-80
2023/06/02 13:26:57;;;;;;;5.30;4.43;;;23.80;58.60;;;;;;10363248;28;20223;-80
2023/06/02 13:32:00;;;;;;;6.57;5.40;;;23.80;57.90;;;;;;10361904;28;20300;-80
2023/06/02 13:37:03;;;;;;;5.87;5.27;;;23.80;57.90;;;;;;10389117;28;20209;-80
2023/06/02 13:42:06;;;;;;;5.90;5.40;;;23.80;58.70;;;;;;10415723;28;20198;-80
2023/06/02 13:47:08;;;;;;;7.47;5.63;;;23.80;58.70;;;;;;10403600;28;20569;-80
2023/06/02 13:52:12;;;;;;;5.73;5.23;;;23.80;59.20;;;;;;10376830;28;20223;-80
2023/06/02 13:57:14;;;;;;;5.03;4.63;;;23.80;59.60;;;;;;10391846;28;20202;-79
2023/06/02 14:02:16;;;;;;;5.23;4.83;;;23.80;58.70;;;;;;10428426;28;20214;-79
2023/06/02 14:07:20;;;;;;;5.67;5.10;;;23.80;59.10;;;;;;10403755;28;20253;-79
2023/06/02 14:12:22;;;;;;;4.60;4.30;;;23.80;59.20;;;;;;10425676;28;20231;-79
2023/06/02 14:17:24;;;;;;;5.77;5.23;;;23.80;59.40;;;;;;10408349;28;20227;-79
2023/06/02 14:22:28;;;;;;;5.80;5.30;;;23.80;59.70;;;;;;10393305;28;20210;-80
2023/06/02 14:27:33;;;;;;;6.00;5.40;;;23.80;60.10;;;;;;10390995;28;20703;-81
2023/06/02 14:32:35;;;;;;;5.30;4.80;;;23.80;60.50;;;;;;10383631;28;20239;-81
2023/06/02 14:37:39;;;;;;;5.10;4.60;;;23.70;61.20;;;;;;10405892;28;20313;-81
2023/06/02 14:42:41;;;;;;;6.87;5.37;;;23.70;59.90;;;;;;10382049;28;20286;-82
2023/06/02 14:47:44;;;;;;;4.97;4.60;;;23.70;60.80;;;;;;10401598;28;20317;-80
2023/06/02 14:52:48;;;;;;;5.30;4.90;;;23.70;60.80;;;;;;10384511;28;20248;-81
2023/06/02 14:57:51;;;;;;;7.13;5.50;;;23.70;60.50;;;;;;10371098;28;20255;-80
2023/06/02 15:02:53;;;;;;;6.03;5.43;;;23.60;61.10;;;;;;10387563;28;20203;-81
2023/06/02 15:07:57;;;;;;;5.63;5.23;;;23.70;60.70;;;;;;10401438;28;20253;-80
2023/06/02 15:12:59;;;;;;;5.67;5.13;;;23.70;59.10;;;;;;10384764;28;20222;-80
2023/06/02 15:18:01;;;;;;;6.20;4.50;;;23.60;60.10;;;;;;10401423;28;20321;-81
2023/06/02 15:23:05;;;;;;;5.83;5.33;;;23.60;60.40;;;;;;10404078;28;20613;-81
2023/06/02 15:28:08;;;;;;;5.37;4.97;;;23.60;60.00;;;;;;10440443;22;20288;-80
2023/06/02 15:33:11;;;;;;;5.20;4.80;;;23.60;60.30;;;;;;10418133;28;20230;-81
2023/06/02 15:38:14;;;;;;;7.27;4.80;;;23.60;60.80;;;;;;10401917;28;20226;-82
2023/06/02 15:43:16;;;;;;;5.63;5.13;;;23.60;60.80;;;;;;10403976;28;20289;-81
2023/06/02 15:48:18;;;;;;;5.40;4.80;;;23.60;60.60;;;;;;10423252;28;20218;-81
2023/06/02 15:53:22;;;;;;;5.20;4.80;;;23.60;61.10;;;;;;10398601;28;20317;-82
2023/06/02 15:58:24;;;;;;;6.53;5.30;;;23.60;60.50;;;;;;10399957;28;20220;-80
2023/06/02 16:03:26;;;;;;;5.07;4.67;;;23.60;60.40;;;;;;10388384;28;20241;-81
2023/06/02 16:08:30;;;;;;;5.60;5.10;;;23.60;60.00;;;;;;10397791;28;20713;-81
2023/06/02 16:13:32;;;;;;;6.03;5.53;;;23.60;60.40;;;;;;10408981;28;20265;-81
2023/06/02 16:18:34;;;;;;;8.90;8.10;;;23.60;60.00;;;;;;10383157;28;20237;-82
2023/06/02 16:23:38;;;;;;;7.23;6.73;;;23.50;60.00;;;;;;10385971;28;20191;-81
2023/06/02 16:28:42;;;;;;;9.67;8.87;;;23.50;59.70;;;;;;10387874;28;20223;-82
2023/06/02 16:33:44;;;;;;;10.07;9.00;;;23.50;60.00;;;;;;10377047;28;20217;-83
2023/06/02 16:38:47;;;;;;;9.17;8.27;;;23.50;60.50;;;;;;10379650;28;20215;-81
2023/06/02 16:43:49;;;;;;;8.77;7.40;;;23.50;60.00;;;;;;10376726;28;20199;-80
2023/06/02 16:48:52;;;;;;;7.70;7.00;;;23.40;60.10;;;;;;10365512;28;20219;-81
2023/06/02 16:53:55;;;;;;;9.20;8.30;;;23.40;60.20;;;;;;10344649;28;20208;-82
2023/06/02 16:58:57;;;;;;;8.13;7.33;;;23.40;59.60;;;;;;10327027;28;20238;-81
2023/06/02 17:04:00;;;;;;;5.80;5.40;;;23.40;59.10;;;;;;10364336;28;20199;-82
2023/06/02 17:09:03;;;;;;;6.30;5.70;;;23.30;58.60;;;;;;10379626;28;20231;-81
2023/06/02 17:14:05;;;;;;;5.93;5.53;;;23.30;58.80;;;;;;10361326;28;20659;-81
2023/06/02 17:19:08;;;;;;;6.57;5.97;;;23.30;59.30;;;;;;10381342;28;20223;-81
2023/06/02 17:24:12;;;;;;;6.40;6.00;;;23.30;59.70;;;;;;10366954;28;20195;-81
2023/06/02 17:29:14;;;;;;;6.53;6.00;;;23.20;60.60;;;;;;10384103;28;20223;-82
2023/06/02 17:34:16;;;;;;;6.10;5.60;;;23.20;61.30;;;;;;10413649;28;20234;-81
2023/06/02 17:39:20;;;;;;;8.73;5.87;;;23.10;62.30;;;;;;10386142;28;20218;-81
2023/06/02 17:44:22;;;;;;;5.57;5.07;;;23.10;61.30;;;;;;10395868;28;20235;-81
2023/06/02 17:49:24;;;;;;;5.90;4.97;;;23.00;60.50;;;;;;10384271;28;20226;-83
2023/06/02 17:54:27;;;;;;;6.33;5.30;;;23.00;60.60;;;;;;10384509;28;20214;-83
2023/06/02 17:59:30;;;;;;;4.90;4.50;;;22.90;60.10;;;;;;10384078;28;20230;-82
2023/06/02 18:04:32;;;;;;;4.80;4.40;;;22.90;60.30;;;;;;10397593;28;20206;-83
2023/06/02 18:09:36;;;;;;;5.60;5.10;;;22.80;60.20;;;;;;10386869;28;20329;-82
2023/06/02 18:14:38;;;;;;;5.10;4.70;;;22.70;60.40;;;;;;10374349;28;20202;-81
2023/06/02 18:19:41;;;;;;;9.60;5.03;;;22.60;60.90;;;;;;10427762;28;20297;-81
2023/06/02 18:24:45;;;;;;;5.47;4.97;;;22.50;60.60;;;;;;10395392;28;20199;-83
2023/06/02 18:29:47;;;;;;;4.33;4.03;;;22.50;59.50;;;;;;10347143;28;20227;-82
2023/06/02 18:34:49;;;;;;;5.40;4.87;;;22.40;61.00;;;;;;10348044;28;20202;-83
2023/06/02 18:39:53;;;;;;;5.20;4.80;;;22.30;60.10;;;;;;10358465;28;20228;-82
2023/06/02 18:44:55;;;;;;;5.43;5.03;;;22.20;60.50;;;;;;10320033;28;20754;-82
2023/06/02 18:49:57;;;;;;;8.03;5.30;;;22.20;59.60;;;;;;10363865;28;20741;-81
2023/06/02 18:55:01;;;;;;;5.60;5.10;;;22.10;61.20;;;;;;10364046;28;20648;-82
2023/06/02 19:00:10;;;;;;;6.10;5.57;;;22.00;61.00;;;;;;10364340;28;20211;-82
2023/06/02 19:05:12;;;;;;;6.13;5.53;;;21.90;60.50;;;;;;10364150;28;20335;-81
2023/06/02 19:10:16;;;;;;;6.53;6.03;;;21.90;61.10;;;;;;10354741;28;20306;-81
2023/06/02 19:15:18;;;;;;;6.30;5.90;;;21.80;62.40;;;;;;10320313;28;20725;-83
2023/06/02 19:20:20;;;;;;;5.97;5.47;;;21.70;63.30;;;;;;10384317;28;20326;-83
2023/06/02 19:25:23;;;;;;;6.47;5.70;;;21.60;64.00;;;;;;10366196;28;20203;-84
2023/06/02 19:30:25;;;;;;;6.30;5.73;;;21.60;64.00;;;;;;10397998;28;20683;-84
2023/06/02 19:35:27;;;;;;;5.57;5.13;;;21.50;62.90;;;;;;10375690;28;20230;-82
2023/06/02 19:40:31;;;;;;;6.13;5.43;;;21.40;66.00;;;;;;10407114;28;20317;-83
2023/06/02 19:45:34;;;;;;;5.40;4.93;;;21.30;64.40;;;;;;10406801;28;20558;-84
2023/06/02 19:50:36;;;;;;;6.80;5.40;;;21.30;63.70;;;;;;10393328;28;20294;-82
2023/06/02 19:55:39;;;;;;;6.00;5.50;;;21.20;63.90;;;;;;10399800;28;20571;-83
2023/06/02 20:00:42;;;;;;;6.57;6.07;;;21.10;65.40;;;;;;10385580;28;20230;-81
2023/06/02 20:05:44;;;;;;;6.10;5.53;;;21.10;64.70;;;;;;10378508;28;20225;-81
2023/06/02 20:10:47;;;;;;;5.73;5.23;;;21.00;65.50;;;;;;10423694;28;20728;-82
2023/06/02 20:15:50;;;;;;;6.90;5.20;;;21.00;66.90;;;;;;10422693;28;20195;-84
2023/06/02 20:20:52;;;;;;;5.27;4.97;;;20.90;65.80;;;;;;10374037;28;20214;-82
2023/06/02 20:25:55;;;;;;;6.20;5.80;;;20.80;66.20;;;;;;10370067;28;20199;-82
2023/06/02 20:30:57;;;;;;;5.90;5.37;;;20.70;66.80;;;;;;10401248;28;20246;-81
2023/06/02 20:36:00;;;;;;;6.07;5.57;;;20.50;67.90;;;;;;10381991;28;20263;-81
2023/06/02 20:41:05;;;;;;;6.47;5.97;;;20.40;68.90;;;;;;10368924;28;20655;-83
2023/06/02 20:46:07;;;;;;;7.00;5.90;;;20.30;67.70;;;;;;10352570;28;20199;-81
2023/06/02 20:51:09;;;;;;;6.03;5.33;;;20.20;67.90;;;;;;10341513;28;20654;-81
2023/06/02 20:56:13;;;;;;;5.80;5.20;;;20.10;68.40;;;;;;10353203;28;20687;-81
2023/06/02 21:01:16;;;;;;;10.17;4.87;;;20.10;68.50;;;;;;10371374;28;20578;-81
2023/06/02 21:06:18;;;;;;;8.27;5.47;;;20.00;69.00;;;;;;10371679;28;20203;-81
2023/06/02 21:11:22;;;;;;;6.00;5.40;;;19.90;68.90;;;;;;10357310;28;20223;-81
2023/06/02 21:16:29;;;;;;;6.47;5.87;;;19.80;68.80;;;;;;10353336;28;20199;-81
2023/06/02 21:21:31;;;;;;;6.33;5.53;;;19.80;69.20;;;;;;10371956;28;20207;-82
2023/06/02 21:26:35;;;;;;;6.50;6.00;;;19.70;69.80;;;;;;10352749;28;20230;-81
2023/06/02 21:31:37;;;;;;;6.20;5.73;;;19.60;69.20;;;;;;10377155;23;20285;-85
2023/06/02 21:36:42;;;;;;;7.97;6.43;;;19.50;69.60;;;;;;10366215;28;20615;-85
2023/06/02 21:41:47;;;;;;;5.80;5.40;;;19.40;69.20;;;;;;10352444;28;20223;-85
2023/06/02 21:46:49;;;;;;;8.10;5.13;;;19.20;69.70;;;;;;10353392;28;20539;-85
2023/06/02 21:51:51;;;;;;;5.70;5.10;;;19.10;70.00;;;;;;10357716;28;20245;-85
2023/06/02 21:56:55;;;;;;;5.27;4.80;;;19.10;69.60;;;;;;10357416;28;20194;-85
2023/06/02 22:01:57;;;;;;;10.37;4.90;;;19.00;69.70;;;;;;10383645;28;20330;-85
2023/06/02 22:06:59;;;;;;;7.73;5.40;;;18.90;69.30;;;;;;10392406;28;20308;-85
2023/06/02 22:12:03;;;;;;;6.80;5.07;;;18.80;69.80;;;;;;10358058;28;20243;-85
2023/06/02 22:17:06;;;;;;;5.80;4.57;;;18.70;70.20;;;;;;10412570;28;20572;-85
2023/06/02 22:22:08;;;;;;;6.33;5.20;;;18.70;69.90;;;;;;10373704;28;20219;-85
2023/06/02 22:27:12;;;;;;;5.90;4.37;;;18.60;69.50;;;;;;10395530;28;20230;-84
2023/06/02 22:32:14;;;;;;;5.73;4.60;;;18.50;70.00;;;;;;10396052;28;20219;-85
2023/06/02 22:37:16;;;;;;;5.67;5.17;;;18.50;70.60;;;;;;10374887;28;20648;-85
2023/06/02 22:42:22;;;;;;;6.33;4.70;;;18.40;69.90;;;;;;10370414;28;20227;-85
2023/06/02 22:47:27;;;;;;;5.00;4.50;;;18.40;71.20;;;;;;10364220;28;20546;-85
2023/06/02 22:52:29;;;;;;;6.60;5.00;;;18.30;70.40;;;;;;10379118;28;20593;-85
2023/06/02 22:57:33;;;;;;;9.90;5.40;;;18.20;70.30;;;;;;10395605;28;20199;-85
2023/06/02 23:02:35;;;;;;;13.53;5.20;;;18.20;70.50;;;;;;10314995;28;20237;-85
2023/06/02 23:07:38;;;;;;;9.50;5.00;;;18.10;70.80;;;;;;10330061;28;20210;-85
2023/06/02 23:12:42;;;;;;;6.10;4.93;;;18.10;71.10;;;;;;10362912;28;20301;-85
2023/06/02 23:17:44;;;;;;;5.80;4.87;;;18.00;70.30;;;;;;10402378;28;20221;-85
2023/06/02 23:22:47;;;;;;;8.90;4.77;;;18.00;70.50;;;;;;10375808;28;20227;-85
2023/06/02 23:27:50;;;;;;;7.47;5.77;;;17.90;70.70;;;;;;10373621;28;20212;-85
2023/06/02 23:32:52;;;;;;;5.60;5.10;;;17.80;71.00;;;;;;10363825;28;20243;-85
2023/06/02 23:37:54;;;;;;;8.63;5.07;;;17.70;70.80;;;;;;10396293;28;20696;-84
2023/06/02 23:43:06;;;;;;;6.23;4.50;;;17.70;71.00;;;;;;10388509;28;21148;-84
2023/06/02 23:48:08;;;;;;;10.30;4.90;;;17.60;71.00;;;;;;10393827;28;20256;-84
2023/06/02 23:53:10;;;;;;;6.10;4.67;;;17.60;71.10;;;;;;10365534;28;20222;-84
2023/06/02 23:58:14;;;;;;;6.73;4.70;;;17.50;71.60;;;;;;10379717;28;20273;-84
